Holy Cross, Alaska
Current Conditions -  °F | °C
As of 8:56 PM on Tuesday 21 Oct 2014 (Local Time) from PAHC Reporting Station
Broken Clouds Broken Clouds  
Wind Chill: 19°   Ceiling: 9000
Heat Index: 30°   Visibility: 10mi
Dew Point: 25°   Wind: 16mph
Humidity: 82%   Direction: 360°N
Pressure: 29.5"   Gusts: NA
Location:  62.2°N, 159.77°W
Report Text: PAHC 220456Z AUTO 36014KT 10SM BKN090 M01/M04 A2950 RMK AO2 TSNO T10111038 SLP994 $
Loading
Personal Weather Stations






























Interactive Weather Map
Tropical Storm Tracking
New forecast layout! Learn more

10-Day Weather Forecast

Advertisements
Track Severe Weather on mobile